sensor_id;sensor_type;location;lat;lon;timestamp;pressure;altitude;pressure_sealevel;temperature;humidity
71107;BME280;58763;47.982;11.516;2023-12-20T00:00:05;94145.09;;;5.14;54.41
71107;BME280;58763;47.982;11.516;2023-12-20T00:02:31;94139.56;;;5.26;54.06
71107;BME280;58763;47.982;11.516;2023-12-20T00:04:57;94142.75;;;5.23;54.42
71107;BME280;58763;47.982;11.516;2023-12-20T00:07:22;94128.63;;;5.27;54.10
71107;BME280;58763;47.982;11.516;2023-12-20T00:09:48;94132.34;;;5.26;53.79
71107;BME280;58763;47.982;11.516;2023-12-20T00:12:13;94121.19;;;5.34;53.59
71107;BME280;58763;47.982;11.516;2023-12-20T00:14:39;94127.00;;;5.26;54.19
71107;BME280;58763;47.982;11.516;2023-12-20T00:17:05;94121.72;;;5.10;53.80
71107;BME280;58763;47.982;11.516;2023-12-20T00:19:30;94110.00;;;5.16;54.24
71107;BME280;58763;47.982;11.516;2023-12-20T00:21:56;94114.03;;;5.18;54.33
71107;BME280;58763;47.982;11.516;2023-12-20T00:24:21;94104.50;;;5.27;54.26
71107;BME280;58763;47.982;11.516;2023-12-20T00:26:47;94104.81;;;5.36;54.83
71107;BME280;58763;47.982;11.516;2023-12-20T00:29:12;94109.81;;;5.22;55.41
71107;BME280;58763;47.982;11.516;2023-12-20T00:31:38;94099.78;;;5.13;55.91
71107;BME280;58763;47.982;11.516;2023-12-20T00:34:03;94101.88;;;5.06;56.20
71107;BME280;58763;47.982;11.516;2023-12-20T00:36:29;94097.94;;;5.18;56.12
71107;BME280;58763;47.982;11.516;2023-12-20T00:38:55;94104.06;;;5.14;56.24
71107;BME280;58763;47.982;11.516;2023-12-20T00:41:20;94102.53;;;5.23;56.94
71107;BME280;58763;47.982;11.516;2023-12-20T00:43:46;94094.13;;;5.09;58.71
71107;BME280;58763;47.982;11.516;2023-12-20T00:46:11;94094.94;;;5.10;58.99
71107;BME280;58763;47.982;11.516;2023-12-20T00:48:37;94084.72;;;5.07;58.66
71107;BME280;58763;47.982;11.516;2023-12-20T00:51:03;94086.69;;;5.16;58.17
71107;BME280;58763;47.982;11.516;2023-12-20T00:53:29;94095.53;;;5.17;58.17
71107;BME280;58763;47.982;11.516;2023-12-20T00:55:54;94083.09;;;5.06;58.42
71107;BME280;58763;47.982;11.516;2023-12-20T00:58:20;94076.94;;;5.05;58.79
71107;BME280;58763;47.982;11.516;2023-12-20T01:00:45;94084.63;;;4.97;59.30
71107;BME280;58763;47.982;11.516;2023-12-20T01:03:12;94081.91;;;4.92;59.94
71107;BME280;58763;47.982;11.516;2023-12-20T01:05:37;94083.41;;;4.82;59.69
71107;BME280;58763;47.982;11.516;2023-12-20T01:08:03;94079.09;;;4.81;59.61
71107;BME280;58763;47.982;11.516;2023-12-20T01:10:29;94073.38;;;4.95;59.00
71107;BME280;58763;47.982;11.516;2023-12-20T01:12:55;94058.94;;;5.01;59.04
71107;BME280;58763;47.982;11.516;2023-12-20T01:15:21;94060.84;;;5.05;58.86
71107;BME280;58763;47.982;11.516;2023-12-20T01:17:46;94059.63;;;5.18;59.24
71107;BME280;58763;47.982;11.516;2023-12-20T01:20:13;94052.16;;;5.20;60.15
71107;BME280;58763;47.982;11.516;2023-12-20T01:22:38;94059.59;;;5.13;60.08
71107;BME280;58763;47.982;11.516;2023-12-20T01:25:04;94052.75;;;5.00;61.79
71107;BME280;58763;47.982;11.516;2023-12-20T01:27:30;94057.06;;;4.74;62.81
71107;BME280;58763;47.982;11.516;2023-12-20T01:29:56;94047.88;;;4.65;63.93
71107;BME280;58763;47.982;11.516;2023-12-20T01:32:22;94040.47;;;4.51;63.66
71107;BME280;58763;47.982;11.516;2023-12-20T01:34:48;94049.19;;;4.36;63.97
71107;BME280;58763;47.982;11.516;2023-12-20T01:37:14;94042.25;;;4.40;64.39
71107;BME280;58763;47.982;11.516;2023-12-20T01:39:39;94037.44;;;4.42;63.75
71107;BME280;58763;47.982;11.516;2023-12-20T01:42:05;94045.69;;;4.36;63.51
71107;BME280;58763;47.982;11.516;2023-12-20T01:44:31;94038.28;;;4.43;63.90
71107;BME280;58763;47.982;11.516;2023-12-20T01:46:56;94035.13;;;4.51;62.58
71107;BME280;58763;47.982;11.516;2023-12-20T01:49:23;94040.25;;;4.52;62.12
71107;BME280;58763;47.982;11.516;2023-12-20T01:51:49;94035.78;;;4.63;61.89
71107;BME280;58763;47.982;11.516;2023-12-20T01:54:16;94031.00;;;4.65;61.75
71107;BME280;58763;47.982;11.516;2023-12-20T01:56:42;94024.38;;;4.72;61.48
71107;BME280;58763;47.982;11.516;2023-12-20T01:59:08;94013.53;;;4.57;62.67
71107;BME280;58763;47.982;11.516;2023-12-20T02:01:35;94004.47;;;4.63;61.68
71107;BME280;58763;47.982;11.516;2023-12-20T02:04:01;93999.66;;;4.65;62.22
71107;BME280;58763;47.982;11.516;2023-12-20T02:06:30;93995.41;;;4.64;62.01
71107;BME280;58763;47.982;11.516;2023-12-20T02:08:59;93992.72;;;4.64;61.75
71107;BME280;58763;47.982;11.516;2023-12-20T02:11:25;93989.72;;;4.61;62.15
71107;BME280;58763;47.982;11.516;2023-12-20T02:13:51;93983.88;;;4.64;61.86
71107;BME280;58763;47.982;11.516;2023-12-20T02:16:16;93990.88;;;4.70;61.76
71107;BME280;58763;47.982;11.516;2023-12-20T02:18:43;93985.84;;;4.73;62.20
71107;BME280;58763;47.982;11.516;2023-12-20T02:21:10;93982.25;;;4.63;62.47
71107;BME280;58763;47.982;11.516;2023-12-20T02:23:36;93978.16;;;4.55;62.70
71107;BME280;58763;47.982;11.516;2023-12-20T02:26:02;93974.16;;;4.58;62.99
71107;BME280;58763;47.982;11.516;2023-12-20T02:28:29;93980.03;;;4.55;63.20
71107;BME280;58763;47.982;11.516;2023-12-20T02:30:54;93981.34;;;4.52;62.79
71107;BME280;58763;47.982;11.516;2023-12-20T02:33:20;93984.88;;;4.58;62.91
71107;BME280;58763;47.982;11.516;2023-12-20T02:35:45;93989.38;;;4.52;64.21
71107;BME280;58763;47.982;11.516;2023-12-20T02:38:11;93981.25;;;4.42;65.34
71107;BME280;58763;47.982;11.516;2023-12-20T02:40:37;93980.88;;;4.34;66.12
71107;BME280;58763;47.982;11.516;2023-12-20T02:43:02;93971.50;;;4.31;66.07
71107;BME280;58763;47.982;11.516;2023-12-20T02:45:28;93975.28;;;4.35;66.44
71107;BME280;58763;47.982;11.516;2023-12-20T02:47:54;93972.81;;;4.29;66.20
71107;BME280;58763;47.982;11.516;2023-12-20T02:50:19;93977.06;;;4.30;66.50
71107;BME280;58763;47.982;11.516;2023-12-20T02:52:48;93971.72;;;4.30;66.61
71107;BME280;58763;47.982;11.516;2023-12-20T02:55:13;93978.09;;;4.24;67.18
71107;BME280;58763;47.982;11.516;2023-12-20T02:57:39;93978.31;;;4.17;67.54
71107;BME280;58763;47.982;11.516;2023-12-20T03:00:09;93972.63;;;4.13;67.74
71107;BME280;58763;47.982;11.516;2023-12-20T03:02:36;93967.78;;;4.10;67.55
71107;BME280;58763;47.982;11.516;2023-12-20T03:05:02;93966.66;;;4.06;68.46
71107;BME280;58763;47.982;11.516;2023-12-20T03:07:28;93964.25;;;4.05;68.27
71107;BME280;58763;47.982;11.516;2023-12-20T03:09:53;93965.81;;;4.01;68.71
71107;BME280;58763;47.982;11.516;2023-12-20T03:12:19;93960.88;;;3.93;68.78
71107;BME280;58763;47.982;11.516;2023-12-20T03:14:44;93960.47;;;4.01;68.81
71107;BME280;58763;47.982;11.516;2023-12-20T03:17:10;93960.69;;;3.99;68.96
71107;BME280;58763;47.982;11.516;2023-12-20T03:19:36;93970.78;;;3.92;69.18
71107;BME280;58763;47.982;11.516;2023-12-20T03:22:01;93968.44;;;3.96;68.56
71107;BME280;58763;47.982;11.516;2023-12-20T03:24:27;93966.56;;;3.96;69.60
71107;BME280;58763;47.982;11.516;2023-12-20T03:26:53;93963.97;;;4.06;69.24
71107;BME280;58763;47.982;11.516;2023-12-20T03:29:19;93968.78;;;4.04;69.55
71107;BME280;58763;47.982;11.516;2023-12-20T03:31:44;93977.25;;;3.96;70.36
71107;BME280;58763;47.982;11.516;2023-12-20T03:34:11;93976.75;;;3.99;70.07
71107;BME280;58763;47.982;11.516;2023-12-20T03:36:37;93977.75;;;3.93;70.04
71107;BME280;58763;47.982;11.516;2023-12-20T03:39:02;93974.81;;;3.95;70.21
71107;BME280;58763;47.982;11.516;2023-12-20T03:41:28;93980.69;;;3.92;71.12
71107;BME280;58763;47.982;11.516;2023-12-20T03:43:54;93980.09;;;3.90;70.89
71107;BME280;58763;47.982;11.516;2023-12-20T03:46:19;93989.22;;;3.89;71.35
71107;BME280;58763;47.982;11.516;2023-12-20T03:48:45;93992.16;;;3.92;71.50
71107;BME280;58763;47.982;11.516;2023-12-20T03:51:11;93981.53;;;3.97;71.11
71107;BME280;58763;47.982;11.516;2023-12-20T03:53:36;94000.53;;;3.96;71.30
71107;BME280;58763;47.982;11.516;2023-12-20T03:56:02;93999.03;;;4.05;71.63
71107;BME280;58763;47.982;11.516;2023-12-20T03:58:27;93997.47;;;4.09;71.26
71107;BME280;58763;47.982;11.516;2023-12-20T04:00:53;93996.78;;;4.18;71.77
71107;BME280;58763;47.982;11.516;2023-12-20T04:03:19;93993.41;;;4.28;72.06
71107;BME280;58763;47.982;11.516;2023-12-20T04:05:44;93995.59;;;4.31;72.20
71107;BME280;58763;47.982;11.516;2023-12-20T04:08:11;93993.56;;;4.43;72.54
71107;BME280;58763;47.982;11.516;2023-12-20T04:10:36;94000.63;;;4.54;73.06
71107;BME280;58763;47.982;11.516;2023-12-20T04:13:03;93998.91;;;4.70;74.00
71107;BME280;58763;47.982;11.516;2023-12-20T04:15:29;93987.84;;;4.61;75.81
71107;BME280;58763;47.982;11.516;2023-12-20T04:17:54;93989.44;;;4.57;77.09
71107;BME280;58763;47.982;11.516;2023-12-20T04:20:20;93993.28;;;4.66;77.00
71107;BME280;58763;47.982;11.516;2023-12-20T04:22:45;94009.63;;;4.70;79.26
71107;BME280;58763;47.982;11.516;2023-12-20T04:25:11;94006.19;;;4.74;79.44
71107;BME280;58763;47.982;11.516;2023-12-20T04:27:37;94008.09;;;4.79;79.34
71107;BME280;58763;47.982;11.516;2023-12-20T04:30:03;94010.50;;;4.75;81.93
71107;BME280;58763;47.982;11.516;2023-12-20T04:32:29;94019.69;;;4.84;83.07
71107;BME280;58763;47.982;11.516;2023-12-20T04:34:54;94012.25;;;4.92;84.31
71107;BME280;58763;47.982;11.516;2023-12-20T04:37:20;93995.06;;;4.87;85.69
71107;BME280;58763;47.982;11.516;2023-12-20T04:39:45;94002.56;;;4.90;86.56
71107;BME280;58763;47.982;11.516;2023-12-20T04:42:11;94006.50;;;4.78;88.11
71107;BME280;58763;47.982;11.516;2023-12-20T04:44:36;94004.81;;;4.72;88.77
71107;BME280;58763;47.982;11.516;2023-12-20T04:47:02;94005.19;;;4.85;88.10
71107;BME280;58763;47.982;11.516;2023-12-20T04:49:28;94007.44;;;4.94;87.52
71107;BME280;58763;47.982;11.516;2023-12-20T04:51:54;94006.88;;;4.92;88.04
71107;BME280;58763;47.982;11.516;2023-12-20T04:54:21;94009.28;;;4.93;87.54
71107;BME280;58763;47.982;11.516;2023-12-20T04:56:46;94018.09;;;4.88;88.30
71107;BME280;58763;47.982;11.516;2023-12-20T04:59:13;94019.78;;;5.00;87.49
71107;BME280;58763;47.982;11.516;2023-12-20T05:01:39;94026.19;;;4.94;88.05
71107;BME280;58763;47.982;11.516;2023-12-20T05:04:04;94031.00;;;4.92;88.46
71107;BME280;58763;47.982;11.516;2023-12-20T05:06:30;94023.94;;;4.80;89.65
71107;BME280;58763;47.982;11.516;2023-12-20T05:08:55;94036.66;;;4.68;91.14
71107;BME280;58763;47.982;11.516;2023-12-20T05:11:21;94028.97;;;4.77;91.17
71107;BME280;58763;47.982;11.516;2023-12-20T05:13:47;94027.97;;;4.56;92.70
71107;BME280;58763;47.982;11.516;2023-12-20T05:16:12;94032.78;;;4.54;92.95
71107;BME280;58763;47.982;11.516;2023-12-20T05:18:40;94034.38;;;4.55;93.80
71107;BME280;58763;47.982;11.516;2023-12-20T05:21:06;94049.53;;;4.45;94.37
71107;BME280;58763;47.982;11.516;2023-12-20T05:23:31;94050.47;;;4.34;95.28
71107;BME280;58763;47.982;11.516;2023-12-20T05:25:57;94053.78;;;4.41;95.39
71107;BME280;58763;47.982;11.516;2023-12-20T05:28:24;94044.13;;;4.40;95.48
71107;BME280;58763;47.982;11.516;2023-12-20T05:30:50;94054.75;;;4.35;95.81
71107;BME280;58763;47.982;11.516;2023-12-20T05:33:15;94041.38;;;4.35;95.59
71107;BME280;58763;47.982;11.516;2023-12-20T05:35:41;94056.88;;;4.33;96.15
71107;BME280;58763;47.982;11.516;2023-12-20T05:38:06;94050.66;;;4.27;96.86
71107;BME280;58763;47.982;11.516;2023-12-20T05:40:32;94063.19;;;4.22;97.11
71107;BME280;58763;47.982;11.516;2023-12-20T05:42:57;94070.25;;;4.11;96.91
71107;BME280;58763;47.982;11.516;2023-12-20T05:45:23;94074.50;;;4.07;97.39
71107;BME280;58763;47.982;11.516;2023-12-20T05:47:48;94085.69;;;4.04;96.73
71107;BME280;58763;47.982;11.516;2023-12-20T05:50:15;94093.34;;;3.95;97.70
71107;BME280;58763;47.982;11.516;2023-12-20T05:52:40;94088.16;;;3.89;98.10
71107;BME280;58763;47.982;11.516;2023-12-20T05:55:06;94092.41;;;3.85;98.45
71107;BME280;58763;47.982;11.516;2023-12-20T05:57:32;94092.81;;;3.77;97.94
71107;BME280;58763;47.982;11.516;2023-12-20T05:59:57;94105.06;;;3.73;98.54
71107;BME280;58763;47.982;11.516;2023-12-20T06:02:23;94104.50;;;3.71;98.74
71107;BME280;58763;47.982;11.516;2023-12-20T06:04:49;94110.88;;;3.70;98.91
71107;BME280;58763;47.982;11.516;2023-12-20T06:07:16;94111.44;;;3.72;99.47
71107;BME280;58763;47.982;11.516;2023-12-20T06:09:41;94122.56;;;3.64;99.58
71107;BME280;58763;47.982;11.516;2023-12-20T06:12:07;94120.84;;;3.58;99.56
71107;BME280;58763;47.982;11.516;2023-12-20T06:14:36;94123.31;;;3.59;100.00
71107;BME280;58763;47.982;11.516;2023-12-20T06:17:01;94125.38;;;3.57;100.00
71107;BME280;58763;47.982;11.516;2023-12-20T06:19:27;94118.69;;;3.55;100.00
71107;BME280;58763;47.982;11.516;2023-12-20T06:21:53;94125.81;;;3.49;100.00
71107;BME280;58763;47.982;11.516;2023-12-20T06:24:19;94130.81;;;3.45;100.00
71107;BME280;58763;47.982;11.516;2023-12-20T06:26:44;94136.81;;;3.53;99.68
71107;BME280;58763;47.982;11.516;2023-12-20T06:29:10;94142.56;;;3.44;100.00
71107;BME280;58763;47.982;11.516;2023-12-20T06:31:35;94142.50;;;3.39;100.00
71107;BME280;58763;47.982;11.516;2023-12-20T06:34:01;94144.75;;;3.31;100.00
71107;BME280;58763;47.982;11.516;2023-12-20T06:36:27;94147.44;;;3.31;100.00
71107;BME280;58763;47.982;11.516;2023-12-20T06:38:53;94148.94;;;3.27;100.00
71107;BME280;58763;47.982;11.516;2023-12-20T06:41:20;94153.91;;;3.35;100.00
71107;BME280;58763;47.982;11.516;2023-12-20T06:43:45;94166.44;;;3.34;100.00
71107;BME280;58763;47.982;11.516;2023-12-20T06:46:11;94175.53;;;3.33;100.00
71107;BME280;58763;47.982;11.516;2023-12-20T06:48:38;94169.53;;;3.26;100.00
71107;BME280;58763;47.982;11.516;2023-12-20T06:51:05;94184.50;;;3.27;100.00
71107;BME280;58763;47.982;11.516;2023-12-20T06:53:30;94185.88;;;3.30;100.00
71107;BME280;58763;47.982;11.516;2023-12-20T06:55:56;94177.63;;;3.31;100.00
71107;BME280;58763;47.982;11.516;2023-12-20T06:58:22;94192.69;;;3.21;100.00
71107;BME280;58763;47.982;11.516;2023-12-20T07:00:48;94190.63;;;3.11;100.00
71107;BME280;58763;47.982;11.516;2023-12-20T07:03:14;94184.38;;;3.06;100.00
71107;BME280;58763;47.982;11.516;2023-12-20T07:05:40;94194.84;;;3.07;100.00
71107;BME280;58763;47.982;11.516;2023-12-20T07:08:06;94197.50;;;3.07;100.00
71107;BME280;58763;47.982;11.516;2023-12-20T07:10:32;94200.06;;;3.02;100.00
71107;BME280;58763;47.982;11.516;2023-12-20T07:12:57;94213.19;;;3.04;100.00
71107;BME280;58763;47.982;11.516;2023-12-20T07:15:23;94207.94;;;3.09;100.00
71107;BME280;58763;47.982;11.516;2023-12-20T07:17:49;94200.91;;;3.03;100.00
71107;BME280;58763;47.982;11.516;2023-12-20T07:20:15;94200.66;;;3.04;100.00
71107;BME280;58763;47.982;11.516;2023-12-20T07:22:40;94205.94;;;3.16;100.00
71107;BME280;58763;47.982;11.516;2023-12-20T07:25:07;94216.81;;;3.26;100.00
71107;BME280;58763;47.982;11.516;2023-12-20T07:27:33;94226.06;;;3.35;99.73
71107;BME280;58763;47.982;11.516;2023-12-20T07:29:58;94217.91;;;3.13;100.00
71107;BME280;58763;47.982;11.516;2023-12-20T07:32:24;94223.34;;;3.18;100.00
71107;BME280;58763;47.982;11.516;2023-12-20T07:34:50;94220.69;;;3.18;100.00
71107;BME280;58763;47.982;11.516;2023-12-20T07:37:15;94218.41;;;3.27;99.87
71107;BME280;58763;47.982;11.516;2023-12-20T07:39:41;94219.03;;;3.45;99.60
71107;BME280;58763;47.982;11.516;2023-12-20T07:42:08;94221.69;;;3.29;99.48
71107;BME280;58763;47.982;11.516;2023-12-20T07:44:34;94235.13;;;3.34;100.00
71107;BME280;58763;47.982;11.516;2023-12-20T07:47:02;94232.22;;;3.35;99.59
71107;BME280;58763;47.982;11.516;2023-12-20T07:49:27;94232.94;;;3.31;100.00
71107;BME280;58763;47.982;11.516;2023-12-20T07:51:53;94223.53;;;3.28;100.00
71107;BME280;58763;47.982;11.516;2023-12-20T07:54:19;94227.09;;;3.34;99.93
71107;BME280;58763;47.982;11.516;2023-12-20T07:56:46;94222.66;;;3.39;99.74
71107;BME280;58763;47.982;11.516;2023-12-20T07:59:12;94231.25;;;3.41;99.42
71107;BME280;58763;47.982;11.516;2023-12-20T08:01:38;94233.50;;;3.33;99.45
71107;BME280;58763;47.982;11.516;2023-12-20T08:04:03;94233.94;;;3.41;99.62
71107;BME280;58763;47.982;11.516;2023-12-20T08:06:29;94235.47;;;3.37;99.65
71107;BME280;58763;47.982;11.516;2023-12-20T08:08:54;94232.59;;;3.27;99.52
71107;BME280;58763;47.982;11.516;2023-12-20T08:11:20;94236.50;;;3.36;99.72
71107;BME280;58763;47.982;11.516;2023-12-20T08:13:46;94241.13;;;3.41;99.39
71107;BME280;58763;47.982;11.516;2023-12-20T08:16:11;94250.78;;;3.42;99.73
71107;BME280;58763;47.982;11.516;2023-12-20T08:18:39;94244.16;;;3.44;99.23
71107;BME280;58763;47.982;11.516;2023-12-20T08:21:05;94237.56;;;3.35;99.75
71107;BME280;58763;47.982;11.516;2023-12-20T08:23:34;94243.44;;;3.21;100.00
71107;BME280;58763;47.982;11.516;2023-12-20T08:26:06;94254.53;;;3.29;100.00
71107;BME280;58763;47.982;11.516;2023-12-20T08:28:32;94256.56;;;3.22;100.00
71107;BME280;58763;47.982;11.516;2023-12-20T08:30:58;94256.59;;;3.11;100.00
71107;BME280;58763;47.982;11.516;2023-12-20T08:33:24;94254.84;;;3.16;100.00
71107;BME280;58763;47.982;11.516;2023-12-20T08:35:50;94256.50;;;3.06;100.00
71107;BME280;58763;47.982;11.516;2023-12-20T08:38:15;94267.88;;;3.01;100.00
71107;BME280;58763;47.982;11.516;2023-12-20T08:40:43;94269.19;;;2.87;100.00
71107;BME280;58763;47.982;11.516;2023-12-20T08:43:08;94250.03;;;2.90;100.00
71107;BME280;58763;47.982;11.516;2023-12-20T08:45:34;94258.63;;;2.92;100.00
71107;BME280;58763;47.982;11.516;2023-12-20T08:47:59;94270.94;;;2.93;100.00
71107;BME280;58763;47.982;11.516;2023-12-20T08:50:25;94261.41;;;2.97;100.00
71107;BME280;58763;47.982;11.516;2023-12-20T08:52:51;94265.03;;;2.91;100.00
71107;BME280;58763;47.982;11.516;2023-12-20T08:55:17;94252.72;;;2.90;100.00
71107;BME280;58763;47.982;11.516;2023-12-20T08:57:43;94255.03;;;2.98;100.00
71107;BME280;58763;47.982;11.516;2023-12-20T09:00:09;94263.50;;;2.95;100.00
71107;BME280;58763;47.982;11.516;2023-12-20T09:02:35;94257.38;;;2.83;100.00
71107;BME280;58763;47.982;11.516;2023-12-20T09:05:02;94252.41;;;2.87;100.00
71107;BME280;58763;47.982;11.516;2023-12-20T09:07:28;94253.84;;;2.94;100.00
71107;BME280;58763;47.982;11.516;2023-12-20T09:09:55;94257.91;;;2.97;100.00
71107;BME280;58763;47.982;11.516;2023-12-20T09:12:21;94254.47;;;2.96;100.00
71107;BME280;58763;47.982;11.516;2023-12-20T09:14:48;94251.53;;;2.98;100.00
71107;BME280;58763;47.982;11.516;2023-12-20T09:17:15;94256.63;;;2.99;100.00
71107;BME280;58763;47.982;11.516;2023-12-20T09:19:42;94249.66;;;3.10;100.00
71107;BME280;58763;47.982;11.516;2023-12-20T09:22:09;94251.22;;;3.22;100.00
71107;BME280;58763;47.982;11.516;2023-12-20T09:24:35;94249.13;;;3.24;100.00
71107;BME280;58763;47.982;11.516;2023-12-20T09:27:01;94242.41;;;3.22;100.00
71107;BME280;58763;47.982;11.516;2023-12-20T09:29:28;94251.09;;;3.29;100.00
71107;BME280;58763;47.982;11.516;2023-12-20T09:31:54;94262.66;;;3.34;100.00
71107;BME280;58763;47.982;11.516;2023-12-20T09:34:20;94250.28;;;3.28;100.00
71107;BME280;58763;47.982;11.516;2023-12-20T09:36:47;94255.94;;;3.32;100.00
71107;BME280;58763;47.982;11.516;2023-12-20T09:39:13;94255.13;;;3.31;100.00
71107;BME280;58763;47.982;11.516;2023-12-20T09:41:43;94259.44;;;3.32;100.00
71107;BME280;58763;47.982;11.516;2023-12-20T09:44:15;94253.94;;;3.39;100.00
71107;BME280;58763;47.982;11.516;2023-12-20T09:46:44;94246.47;;;3.41;100.00
71107;BME280;58763;47.982;11.516;2023-12-20T09:49:11;94247.00;;;3.55;100.00
71107;BME280;58763;47.982;11.516;2023-12-20T09:51:38;94244.72;;;3.46;100.00
71107;BME280;58763;47.982;11.516;2023-12-20T09:54:04;94249.75;;;3.43;100.00
71107;BME280;58763;47.982;11.516;2023-12-20T09:56:30;94253.56;;;3.47;100.00
71107;BME280;58763;47.982;11.516;2023-12-20T09:58:56;94244.63;;;3.41;100.00
71107;BME280;58763;47.982;11.516;2023-12-20T10:01:23;94240.25;;;3.35;100.00
71107;BME280;58763;47.982;11.516;2023-12-20T10:03:51;94235.84;;;3.29;100.00
71107;BME280;58763;47.982;11.516;2023-12-20T10:06:16;94235.31;;;3.44;100.00
71107;BME280;58763;47.982;11.516;2023-12-20T10:08:42;94239.09;;;3.31;100.00
71107;BME280;58763;47.982;11.516;2023-12-20T10:11:08;94238.50;;;3.29;100.00
71107;BME280;58763;47.982;11.516;2023-12-20T10:13:34;94232.69;;;3.32;100.00
71107;BME280;58763;47.982;11.516;2023-12-20T10:15:59;94225.16;;;3.29;100.00
71107;BME280;58763;47.982;11.516;2023-12-20T10:18:29;94220.97;;;3.33;100.00
71107;BME280;58763;47.982;11.516;2023-12-20T10:20:55;94213.75;;;3.34;100.00
71107;BME280;58763;47.982;11.516;2023-12-20T10:23:21;94220.81;;;3.40;100.00
71107;BME280;58763;47.982;11.516;2023-12-20T10:26:00;94216.34;;;3.45;100.00
71107;BME280;58763;47.982;11.516;2023-12-20T10:28:26;94219.38;;;3.49;100.00
71107;BME280;58763;47.982;11.516;2023-12-20T10:30:55;94223.06;;;3.48;100.00
71107;BME280;58763;47.982;11.516;2023-12-20T10:33:25;94215.78;;;3.43;100.00
71107;BME280;58763;47.982;11.516;2023-12-20T10:35:52;94216.69;;;3.49;100.00
71107;BME280;58763;47.982;11.516;2023-12-20T10:38:17;94216.22;;;3.52;100.00
71107;BME280;58763;47.982;11.516;2023-12-20T10:40:45;94207.94;;;3.54;100.00
71107;BME280;58763;47.982;11.516;2023-12-20T10:43:11;94192.00;;;3.59;100.00
71107;BME280;58763;47.982;11.516;2023-12-20T10:45:37;94194.69;;;3.59;100.00
71107;BME280;58763;47.982;11.516;2023-12-20T10:48:04;94204.63;;;3.63;100.00
71107;BME280;58763;47.982;11.516;2023-12-20T10:50:30;94200.75;;;3.71;100.00
71107;BME280;58763;47.982;11.516;2023-12-20T10:52:57;94205.84;;;3.72;100.00
71107;BME280;58763;47.982;11.516;2023-12-20T10:55:24;94188.59;;;3.80;100.00
71107;BME280;58763;47.982;11.516;2023-12-20T10:58:08;94188.34;;;3.81;100.00
71107;BME280;58763;47.982;11.516;2023-12-20T11:00:43;94185.41;;;3.83;100.00
71107;BME280;58763;47.982;11.516;2023-12-20T11:03:11;94190.22;;;3.81;100.00
71107;BME280;58763;47.982;11.516;2023-12-20T11:13:44;94175.72;;;3.77;100.00
71107;BME280;58763;47.982;11.516;2023-12-20T11:16:13;94182.91;;;3.76;100.00
71107;BME280;58763;47.982;11.516;2023-12-20T11:18:40;94179.94;;;3.73;100.00
71107;BME280;58763;47.982;11.516;2023-12-20T11:21:06;94167.69;;;3.77;100.00
71107;BME280;58763;47.982;11.516;2023-12-20T11:23:32;94177.91;;;3.80;100.00
71107;BME280;58763;47.982;11.516;2023-12-20T11:26:02;94188.19;;;3.71;100.00
71107;BME280;58763;47.982;11.516;2023-12-20T11:28:28;94177.81;;;3.75;100.00
71107;BME280;58763;47.982;11.516;2023-12-20T11:30:58;94177.34;;;3.78;100.00
71107;BME280;58763;47.982;11.516;2023-12-20T11:33:36;94169.81;;;3.75;100.00
71107;BME280;58763;47.982;11.516;2023-12-20T11:36:02;94177.34;;;3.78;100.00
71107;BME280;58763;47.982;11.516;2023-12-20T11:38:37;94173.69;;;3.84;100.00
71107;BME280;58763;47.982;11.516;2023-12-20T11:41:05;94177.72;;;3.86;100.00
71107;BME280;58763;47.982;11.516;2023-12-20T11:43:38;94175.88;;;3.87;100.00
71107;BME280;58763;47.982;11.516;2023-12-20T11:46:08;94179.03;;;3.84;100.00
71107;BME280;58763;47.982;11.516;2023-12-20T11:48:37;94169.38;;;3.83;100.00
71107;BME280;58763;47.982;11.516;2023-12-20T11:51:12;94164.19;;;3.93;100.00
71107;BME280;58763;47.982;11.516;2023-12-20T11:53:38;94163.63;;;3.91;100.00
71107;BME280;58763;47.982;11.516;2023-12-20T11:56:06;94167.84;;;3.87;100.00
71107;BME280;58763;47.982;11.516;2023-12-20T11:58:32;94171.47;;;3.81;100.00
71107;BME280;58763;47.982;11.516;2023-12-20T12:00:58;94170.75;;;3.85;100.00
71107;BME280;58763;47.982;11.516;2023-12-20T12:03:24;94166.94;;;3.81;100.00
71107;BME280;58763;47.982;11.516;2023-12-20T12:05:49;94163.38;;;3.76;100.00
71107;BME280;58763;47.982;11.516;2023-12-20T12:08:16;94163.53;;;3.86;100.00
71107;BME280;58763;47.982;11.516;2023-12-20T12:10:43;94162.59;;;3.75;100.00
71107;BME280;58763;47.982;11.516;2023-12-20T12:13:09;94160.41;;;3.72;100.00
71107;BME280;58763;47.982;11.516;2023-12-20T12:15:36;94163.56;;;3.69;100.00
71107;BME280;58763;47.982;11.516;2023-12-20T12:18:02;94170.06;;;3.73;100.00
71107;BME280;58763;47.982;11.516;2023-12-20T12:20:28;94167.53;;;3.67;100.00
71107;BME280;58763;47.982;11.516;2023-12-20T12:23:04;94164.09;;;3.71;100.00
71107;BME280;58763;47.982;11.516;2023-12-20T12:25:31;94171.00;;;3.84;100.00
71107;BME280;58763;47.982;11.516;2023-12-20T12:27:58;94159.84;;;3.70;100.00
71107;BME280;58763;47.982;11.516;2023-12-20T12:30:24;94160.66;;;3.71;100.00
71107;BME280;58763;47.982;11.516;2023-12-20T12:32:53;94161.59;;;3.65;100.00
71107;BME280;58763;47.982;11.516;2023-12-20T12:35:20;94156.03;;;3.66;100.00
71107;BME280;58763;47.982;11.516;2023-12-20T12:37:46;94146.84;;;3.62;100.00
71107;BME280;58763;47.982;11.516;2023-12-20T12:40:13;94146.38;;;3.65;100.00
71107;BME280;58763;47.982;11.516;2023-12-20T12:42:40;94143.97;;;3.64;100.00
71107;BME280;58763;47.982;11.516;2023-12-20T12:45:06;94153.66;;;3.70;100.00
71107;BME280;58763;47.982;11.516;2023-12-20T12:47:32;94150.09;;;3.64;100.00
71107;BME280;58763;47.982;11.516;2023-12-20T12:49:58;94139.19;;;3.66;100.00
71107;BME280;58763;47.982;11.516;2023-12-20T12:52:24;94136.41;;;3.77;100.00
71107;BME280;58763;47.982;11.516;2023-12-20T12:54:49;94140.88;;;3.72;100.00
71107;BME280;58763;47.982;11.516;2023-12-20T12:57:15;94133.34;;;3.69;100.00